createdAt,value
2018-03-29T00:01:57.543Z,1.70
2018-03-29T00:04:25.752Z,2.60
2018-03-29T00:06:53.244Z,2.63
2018-03-29T00:09:20.735Z,2.10
2018-03-29T00:11:48.185Z,3.07
2018-03-29T00:14:15.664Z,2.10
2018-03-29T00:16:43.917Z,2.50
2018-03-29T00:19:11.378Z,2.47
2018-03-29T00:21:39.602Z,3.60
2018-03-29T00:24:07.091Z,2.63
2018-03-29T00:26:34.573Z,2.63
2018-03-29T00:29:02.826Z,2.73
2018-03-29T00:31:30.263Z,3.20
2018-03-29T00:33:57.743Z,2.80
2018-03-29T00:36:25.191Z,2.63
2018-03-29T00:38:52.656Z,2.67
2018-03-29T00:41:20.144Z,3.40
2018-03-29T00:43:47.643Z,2.53
2018-03-29T00:46:15.127Z,2.90
2018-03-29T00:48:42.572Z,2.53
2018-03-29T00:51:10.036Z,2.97
2018-03-29T00:53:44.163Z,2.20
2018-03-29T00:56:12.402Z,2.33
2018-03-29T00:58:39.861Z,2.40
2018-03-29T01:01:07.340Z,2.80
2018-03-29T01:03:34.822Z,2.83
2018-03-29T01:06:03.081Z,3.50
2018-03-29T01:08:33.488Z,3.30
2018-03-29T01:11:00.944Z,3.40
2018-03-29T01:13:28.427Z,4.70
2018-03-29T01:15:56.657Z,3.03
2018-03-29T01:18:24.176Z,2.57
2018-03-29T01:20:51.614Z,3.10
2018-03-29T01:23:19.863Z,3.07
2018-03-29T01:25:47.336Z,2.63
2018-03-29T01:28:14.804Z,3.33
2018-03-29T01:30:43.015Z,3.13
2018-03-29T01:33:10.502Z,3.27
2018-03-29T01:35:37.962Z,2.83
2018-03-29T01:38:05.428Z,3.00
2018-03-29T01:40:34.376Z,3.23
2018-03-29T01:43:01.864Z,2.87
2018-03-29T01:45:29.316Z,3.30
2018-03-29T01:47:56.779Z,4.77
2018-03-29T01:50:24.243Z,3.87
2018-03-29T01:52:51.704Z,3.30
2018-03-29T01:55:19.181Z,3.43
2018-03-29T01:57:47.416Z,3.33
2018-03-29T02:00:14.860Z,3.17
2018-03-29T02:02:42.337Z,4.00
2018-03-29T02:05:09.819Z,3.17
2018-03-29T02:07:38.031Z,4.03
2018-03-29T02:10:05.485Z,3.37
2018-03-29T02:12:32.963Z,3.63
2018-03-29T02:15:00.437Z,2.97
2018-03-29T02:17:27.912Z,3.57
2018-03-29T02:19:56.130Z,3.73
2018-03-29T02:22:23.585Z,3.43
2018-03-29T02:24:51.043Z,3.97
2018-03-29T02:27:18.536Z,3.00
2018-03-29T02:29:45.975Z,3.47
2018-03-29T02:32:13.434Z,3.87
2018-03-29T02:34:40.930Z,3.37
2018-03-29T02:37:09.132Z,2.97
2018-03-29T02:39:36.621Z,2.90
2018-03-29T02:42:04.119Z,3.23
2018-03-29T02:44:32.372Z,4.03
2018-03-29T02:46:59.830Z,3.10
2018-03-29T02:49:27.280Z,2.93
2018-03-29T02:51:54.743Z,3.10
2018-03-29T02:54:22.224Z,3.60
2018-03-29T02:56:50.454Z,3.10
2018-03-29T02:59:17.903Z,3.00
2018-03-29T03:01:45.371Z,3.13
2018-03-29T03:04:12.850Z,3.97
2018-03-29T03:06:40.333Z,2.73
2018-03-29T03:09:07.783Z,3.70
2018-03-29T03:11:35.991Z,3.57
2018-03-29T03:14:03.460Z,2.90
2018-03-29T03:16:30.911Z,2.87
2018-03-29T03:18:58.402Z,2.70
2018-03-29T03:21:26.652Z,4.00
2018-03-29T03:23:54.107Z,3.00
2018-03-29T03:26:21.592Z,2.80
2018-03-29T03:28:49.067Z,3.30
2018-03-29T03:31:17.295Z,3.70
2018-03-29T03:33:44.791Z,3.30
2018-03-29T03:36:13.024Z,2.80
2018-03-29T03:38:40.483Z,3.10
2018-03-29T03:41:07.930Z,3.20
2018-03-29T03:43:35.403Z,3.10
2018-03-29T03:46:02.845Z,2.90
2018-03-29T03:48:30.323Z,3.47
2018-03-29T03:50:57.787Z,3.40
2018-03-29T03:53:25.243Z,3.20
2018-03-29T03:55:52.691Z,3.97
2018-03-29T03:58:20.199Z,4.20
2018-03-29T04:00:47.646Z,3.10
2018-03-29T04:03:15.132Z,3.00
2018-03-29T04:05:42.633Z,3.30
2018-03-29T04:08:10.084Z,3.00
2018-03-29T04:10:37.560Z,3.47
2018-03-29T04:13:05.781Z,3.70
2018-03-29T04:15:33.262Z,3.22
2018-03-29T04:18:00.732Z,3.00
2018-03-29T04:20:28.195Z,3.40
2018-03-29T04:22:56.433Z,3.20
2018-03-29T04:25:23.956Z,3.62
2018-03-29T04:27:51.412Z,3.20
2018-03-29T04:30:18.868Z,3.20
2018-03-29T04:32:46.335Z,3.17
2018-03-29T04:35:13.841Z,3.30
2018-03-29T04:37:41.312Z,3.60
2018-03-29T04:40:08.765Z,3.58
2018-03-29T04:42:37.013Z,3.62
2018-03-29T04:45:04.459Z,3.60
2018-03-29T04:47:31.904Z,3.50
2018-03-29T04:49:59.428Z,3.12
2018-03-29T04:52:26.894Z,3.50
2018-03-29T04:54:54.365Z,3.40
2018-03-29T04:57:21.813Z,3.80
2018-03-29T04:59:49.284Z,3.83
2018-03-29T05:02:16.734Z,3.90
2018-03-29T05:04:44.208Z,3.78
2018-03-29T05:07:11.666Z,3.50
2018-03-29T05:09:39.108Z,4.10
2018-03-29T05:12:06.583Z,9.10
2018-03-29T05:14:34.015Z,7.35
2018-03-29T05:17:01.535Z,4.50
2018-03-29T05:19:29.754Z,3.87
2018-03-29T05:21:57.244Z,3.73
2018-03-29T05:24:24.679Z,3.23
2018-03-29T05:26:54.640Z,5.10
2018-03-29T05:29:22.946Z,5.30
2018-03-29T05:31:50.408Z,5.00
2018-03-29T05:34:17.857Z,4.00
2018-03-29T05:36:45.351Z,4.47
2018-03-29T05:39:12.811Z,4.80
2018-03-29T05:41:40.252Z,4.63
2018-03-29T05:44:07.719Z,4.97
2018-03-29T05:46:35.172Z,4.53
2018-03-29T05:49:02.639Z,4.73
2018-03-29T05:51:30.082Z,4.10
2018-03-29T05:53:57.545Z,3.40
2018-03-29T05:56:24.988Z,3.70
2018-03-29T05:58:52.475Z,4.40
2018-03-29T06:01:19.935Z,3.80
2018-03-29T06:03:48.178Z,5.33
2018-03-29T06:06:15.649Z,5.03
2018-03-29T06:08:43.113Z,3.70
2018-03-29T06:11:10.643Z,3.70
2018-03-29T06:13:40.077Z,3.67
2018-03-29T06:16:07.521Z,4.00
2018-03-29T06:18:34.979Z,6.97
2018-03-29T06:21:02.456Z,6.43
2018-03-29T06:23:30.668Z,10.70
2018-03-29T06:25:58.132Z,8.83
2018-03-29T06:28:25.585Z,9.03
2018-03-29T06:30:53.061Z,10.97
2018-03-29T06:33:20.520Z,5.00
2018-03-29T06:35:47.989Z,6.73
2018-03-29T06:38:15.447Z,4.73
2018-03-29T06:40:42.916Z,4.40
2018-03-29T06:43:11.127Z,4.60
2018-03-29T06:45:38.572Z,4.57
2018-03-29T06:48:06.042Z,6.10
2018-03-29T06:50:33.512Z,5.23
2018-03-29T06:53:00.979Z,5.13
2018-03-29T06:55:28.431Z,6.00
2018-03-29T06:57:55.903Z,6.10
2018-03-29T07:00:23.349Z,4.87
2018-03-29T07:02:50.815Z,4.70
2018-03-29T07:05:18.268Z,4.60
2018-03-29T07:07:45.741Z,4.90
2018-03-29T07:10:13.947Z,5.90
2018-03-29T07:12:41.425Z,8.20
2018-03-29T07:15:08.898Z,5.73
2018-03-29T07:17:36.367Z,5.50
2018-03-29T07:20:03.842Z,6.50
2018-03-29T07:22:31.299Z,5.80
2018-03-29T07:24:58.784Z,5.63
2018-03-29T07:27:26.993Z,5.80
2018-03-29T07:29:54.453Z,4.73
2018-03-29T07:32:21.896Z,4.63
2018-03-29T07:34:49.388Z,3.50
2018-03-29T07:37:16.827Z,5.03
2018-03-29T07:39:44.309Z,4.67
2018-03-29T07:42:11.751Z,5.03
2018-03-29T07:44:39.235Z,5.93
2018-03-29T07:47:07.456Z,4.53
2018-03-29T07:49:34.940Z,3.73
2018-03-29T07:52:02.385Z,4.20
2018-03-29T07:54:29.820Z,3.60
2018-03-29T07:56:57.296Z,2.97
2018-03-29T07:59:24.731Z,3.70
2018-03-29T08:01:52.229Z,3.73
2018-03-29T08:04:19.695Z,3.47
2018-03-29T08:06:47.156Z,3.30
2018-03-29T08:09:14.703Z,4.23
2018-03-29T08:11:42.172Z,4.43
2018-03-29T08:14:09.640Z,4.30
2018-03-29T08:16:37.865Z,3.50
2018-03-29T08:19:05.337Z,4.83
2018-03-29T08:21:32.796Z,4.60
2018-03-29T08:24:00.284Z,3.50
2018-03-29T08:26:29.643Z,3.63
2018-03-29T08:28:57.141Z,3.97
2018-03-29T08:31:25.369Z,3.53
2018-03-29T08:33:52.812Z,5.33
2018-03-29T08:36:20.344Z,4.73
2018-03-29T08:38:47.815Z,4.27
2018-03-29T08:41:15.284Z,3.90
2018-03-29T08:43:42.724Z,4.30
2018-03-29T08:46:10.197Z,4.00
2018-03-29T08:48:37.652Z,4.37
2018-03-29T08:51:05.129Z,4.17
2018-03-29T08:53:32.603Z,3.60
2018-03-29T08:56:00.042Z,3.47
2018-03-29T08:58:27.484Z,4.50
2018-03-29T09:00:54.959Z,3.33
2018-03-29T09:03:22.402Z,3.50
2018-03-29T09:05:49.881Z,3.97
2018-03-29T09:08:17.321Z,4.10
2018-03-29T09:10:44.802Z,4.67
2018-03-29T09:13:12.266Z,3.43
2018-03-29T09:15:40.496Z,2.80
2018-03-29T09:18:07.979Z,3.57
2018-03-29T09:20:35.433Z,5.03
2018-03-29T09:23:02.920Z,3.63
2018-03-29T09:25:30.397Z,4.30
2018-03-29T09:27:57.887Z,3.83
2018-03-29T09:30:25.365Z,3.60
2018-03-29T09:32:52.876Z,3.73
2018-03-29T09:35:20.370Z,4.60
2018-03-29T09:37:47.835Z,3.43
2018-03-29T09:40:15.345Z,3.20
2018-03-29T09:42:42.806Z,2.90
2018-03-29T09:45:10.285Z,2.77
2018-03-29T09:47:37.774Z,2.80
2018-03-29T09:50:05.244Z,2.87
2018-03-29T09:52:33.464Z,2.70
2018-03-29T09:55:00.948Z,2.83
2018-03-29T09:57:28.416Z,2.60
2018-03-29T09:59:56.662Z,2.30
2018-03-29T10:02:24.127Z,2.87
2018-03-29T10:04:57.421Z,2.87
2018-03-29T10:07:31.408Z,2.70
2018-03-29T10:09:58.889Z,2.80
2018-03-29T10:12:26.352Z,2.43
2018-03-29T10:14:54.569Z,3.10
2018-03-29T10:17:22.050Z,4.53
2018-03-29T10:19:49.524Z,3.23
2018-03-29T10:22:17.009Z,3.00
2018-03-29T10:24:45.239Z,2.73
2018-03-29T10:27:12.737Z,2.67
2018-03-29T10:29:40.175Z,2.93
2018-03-29T10:32:07.655Z,3.30
2018-03-29T10:34:35.876Z,2.87
2018-03-29T10:37:03.352Z,4.47
2018-03-29T10:39:30.807Z,4.33
2018-03-29T10:41:58.280Z,3.30
2018-03-29T10:44:25.736Z,3.50
2018-03-29T10:46:53.196Z,4.00
2018-03-29T10:49:21.441Z,3.30
2018-03-29T10:51:48.887Z,3.20
2018-03-29T10:54:16.359Z,2.80
2018-03-29T10:56:43.809Z,3.50
2018-03-29T10:59:11.295Z,3.53
2018-03-29T11:01:38.766Z,2.60
2018-03-29T11:04:07.028Z,3.40
2018-03-29T11:06:34.471Z,3.90
2018-03-29T11:09:01.936Z,4.17
2018-03-29T11:11:29.401Z,3.90
2018-03-29T11:13:57.654Z,3.13
2018-03-29T11:16:25.138Z,3.27
2018-03-29T11:18:52.676Z,3.30
2018-03-29T11:21:20.165Z,2.90
2018-03-29T11:23:48.375Z,2.77
2018-03-29T11:26:15.843Z,3.20
2018-03-29T11:28:43.284Z,3.23
2018-03-29T11:31:10.779Z,3.07
2018-03-29T11:33:38.258Z,4.63
2018-03-29T11:36:05.714Z,4.20
2018-03-29T11:38:33.951Z,3.03
2018-03-29T11:41:01.413Z,2.97
2018-03-29T11:43:28.887Z,3.53
2018-03-29T11:45:56.336Z,3.43
2018-03-29T11:48:23.823Z,2.83
2018-03-29T11:50:52.031Z,5.50
2018-03-29T11:53:19.516Z,3.20
2018-03-29T11:55:46.980Z,2.83
2018-03-29T11:58:14.455Z,2.50
2018-03-29T12:00:41.896Z,2.83
2018-03-29T12:03:09.377Z,2.83
2018-03-29T12:05:37.611Z,4.43
2018-03-29T12:08:05.087Z,3.43
2018-03-29T12:10:32.581Z,3.00
2018-03-29T12:13:00.040Z,3.10
2018-03-29T12:15:27.538Z,2.73
2018-03-29T12:17:55.019Z,2.90
2018-03-29T12:20:22.495Z,3.27
2018-03-29T12:22:50.740Z,3.27
2018-03-29T12:25:18.965Z,3.70
2018-03-29T12:27:46.412Z,2.67
2018-03-29T12:30:13.894Z,4.37
2018-03-29T12:32:41.388Z,2.40
2018-03-29T12:35:08.864Z,3.53
2018-03-29T12:37:37.100Z,3.30
2018-03-29T12:40:04.622Z,3.70
2018-03-29T12:42:32.085Z,2.97
2018-03-29T12:44:59.573Z,4.57
2018-03-29T12:47:27.025Z,4.07
2018-03-29T12:49:54.463Z,2.93
2018-03-29T12:52:21.952Z,4.10
2018-03-29T12:55:01.496Z,3.50
2018-03-29T13:00:33.683Z,4.13
2018-03-29T13:03:01.155Z,2.87
2018-03-29T13:05:29.367Z,3.90
2018-03-29T13:07:56.851Z,3.43
2018-03-29T13:10:24.319Z,4.17
2018-03-29T13:12:51.816Z,3.83
2018-03-29T13:15:20.036Z,7.10
2018-03-29T13:17:47.519Z,3.40
2018-03-29T13:20:14.996Z,3.80
2018-03-29T13:22:42.448Z,4.40
2018-03-29T13:25:10.722Z,4.37
2018-03-29T13:27:38.164Z,3.47
2018-03-29T13:30:05.638Z,4.20
2018-03-29T13:32:33.900Z,3.47
2018-03-29T13:35:02.159Z,2.70
2018-03-29T13:37:29.597Z,3.87
2018-03-29T13:39:57.067Z,3.40
2018-03-29T13:42:24.555Z,3.00
2018-03-29T13:44:52.804Z,3.03
2018-03-29T13:47:20.280Z,3.10
2018-03-29T13:49:48.519Z,3.60
2018-03-29T13:52:15.977Z,2.80
2018-03-29T13:54:43.441Z,3.33
2018-03-29T13:57:10.897Z,3.37
2018-03-29T13:59:38.363Z,4.03
2018-03-29T14:02:05.808Z,3.40
2018-03-29T14:04:33.269Z,2.60
2018-03-29T14:07:00.752Z,3.73
2018-03-29T14:09:29.025Z,4.03
2018-03-29T14:11:56.506Z,4.13
2018-03-29T14:14:23.968Z,3.37
2018-03-29T14:16:51.443Z,3.13
2018-03-29T14:19:18.899Z,4.03
2018-03-29T14:21:46.375Z,3.27
2018-03-29T14:24:13.846Z,3.83
2018-03-29T14:26:41.344Z,2.77
2018-03-29T14:29:09.605Z,3.10
2018-03-29T14:31:37.817Z,3.67
2018-03-29T14:34:05.312Z,2.60
2018-03-29T14:36:32.788Z,2.30
2018-03-29T14:39:01.011Z,2.53
2018-03-29T14:41:28.552Z,2.47
2018-03-29T14:43:55.988Z,3.00
2018-03-29T14:46:23.459Z,2.37
2018-03-29T14:48:50.924Z,2.40
2018-03-29T14:51:18.397Z,2.93
2018-03-29T14:53:45.860Z,2.30
2018-03-29T14:56:13.319Z,4.70
2018-03-29T14:58:40.789Z,1.53
2018-03-29T15:01:08.319Z,2.30
2018-03-29T15:03:36.511Z,2.23
2018-03-29T15:06:03.952Z,1.73
2018-03-29T15:08:31.416Z,2.10
2018-03-29T15:10:58.916Z,3.10
2018-03-29T15:13:27.121Z,2.73
2018-03-29T15:15:54.620Z,3.20
2018-03-29T15:18:22.059Z,1.70
2018-03-29T15:20:49.565Z,2.40
2018-03-29T15:23:17.793Z,1.90
2018-03-29T15:25:45.271Z,1.83
2018-03-29T15:28:13.459Z,1.73
2018-03-29T15:30:41.727Z,2.73
2018-03-29T15:33:09.181Z,4.90
2018-03-29T15:35:36.619Z,1.70
2018-03-29T15:38:05.594Z,1.97
2018-03-29T15:40:33.079Z,2.63
2018-03-29T15:43:00.576Z,2.40
2018-03-29T15:45:28.034Z,3.00
2018-03-29T15:47:55.498Z,1.63
2018-03-29T15:50:23.016Z,2.80
2018-03-29T15:52:50.471Z,1.90
2018-03-29T15:55:18.690Z,2.50
2018-03-29T15:57:46.183Z,2.30
2018-03-29T16:00:13.659Z,1.50
2018-03-29T16:02:42.704Z,3.30
2018-03-29T16:05:10.159Z,5.97
2018-03-29T16:07:37.651Z,1.80
2018-03-29T16:10:05.099Z,1.77
2018-03-29T16:12:32.580Z,2.13
2018-03-29T16:15:00.837Z,2.03
2018-03-29T16:17:28.320Z,1.73
2018-03-29T16:19:56.574Z,1.60
2018-03-29T16:22:24.034Z,2.13
2018-03-29T16:24:51.536Z,2.20
2018-03-29T16:27:19.008Z,1.73
2018-03-29T16:29:46.501Z,1.67
2018-03-29T16:32:13.952Z,1.67
2018-03-29T16:34:41.425Z,2.33
2018-03-29T16:37:09.647Z,2.03
2018-03-29T16:39:37.104Z,2.50
2018-03-29T16:42:04.600Z,2.20
2018-03-29T16:44:32.059Z,1.47
2018-03-29T16:46:59.568Z,4.30
2018-03-29T16:49:27.028Z,1.80
2018-03-29T16:51:54.496Z,2.93
2018-03-29T16:54:21.979Z,2.33
2018-03-29T16:56:49.460Z,1.60
2018-03-29T16:59:17.738Z,2.00
2018-03-29T17:01:45.218Z,2.40
2018-03-29T17:04:13.444Z,2.90
2018-03-29T17:06:40.965Z,1.80
2018-03-29T17:09:08.529Z,2.53
2018-03-29T17:11:35.989Z,3.53
2018-03-29T17:14:03.475Z,3.03
2018-03-29T17:16:30.931Z,2.77
2018-03-29T17:18:59.184Z,2.60
2018-03-29T17:21:28.904Z,2.10
2018-03-29T17:23:56.414Z,2.57
2018-03-29T17:26:23.886Z,5.33
2018-03-29T17:28:51.336Z,2.00
2018-03-29T17:31:18.839Z,3.40
2018-03-29T17:33:46.324Z,2.47
2018-03-29T17:36:14.744Z,2.03
2018-03-29T17:38:42.241Z,2.33
2018-03-29T17:41:09.722Z,4.00
2018-03-29T17:43:37.969Z,2.70
2018-03-29T17:46:05.435Z,2.60
2018-03-29T17:48:33.652Z,1.83
2018-03-29T17:51:01.151Z,2.37
2018-03-29T17:53:28.632Z,2.10
2018-03-29T17:55:56.900Z,3.20
2018-03-29T17:58:25.140Z,3.00
2018-03-29T18:00:52.645Z,3.83
2018-03-29T18:03:20.877Z,2.43
2018-03-29T18:05:48.337Z,2.30
2018-03-29T18:08:15.859Z,2.10
2018-03-29T18:10:43.321Z,2.37
2018-03-29T18:13:10.819Z,2.00
2018-03-29T18:15:38.298Z,2.57
2018-03-29T18:18:06.546Z,2.60
2018-03-29T18:20:34.025Z,2.50
2018-03-29T18:23:02.273Z,4.60
2018-03-29T18:25:29.754Z,2.93
2018-03-29T18:27:57.225Z,6.30
2018-03-29T18:30:24.690Z,3.50
2018-03-29T18:32:52.200Z,3.53
2018-03-29T18:35:19.673Z,4.43
2018-03-29T18:37:47.157Z,3.73
2018-03-29T18:40:15.381Z,3.23
2018-03-29T18:42:42.918Z,4.20
2018-03-29T18:45:10.404Z,5.37
2018-03-29T18:47:39.404Z,4.37
2018-03-29T18:50:06.902Z,3.43
2018-03-29T18:52:34.341Z,4.30
2018-03-29T18:55:02.582Z,4.40
2018-03-29T18:57:30.070Z,3.10
2018-03-29T18:59:57.580Z,4.77
2018-03-29T19:02:25.033Z,4.33
2018-03-29T19:04:52.536Z,4.33
2018-03-29T19:07:20.768Z,3.90
2018-03-29T19:09:48.251Z,5.60
2018-03-29T19:12:15.728Z,3.73
2018-03-29T19:14:43.219Z,4.57
2018-03-29T19:17:10.740Z,4.47
2018-03-29T19:19:39.052Z,7.27
2018-03-29T19:22:06.552Z,4.90
2018-03-29T19:24:33.996Z,4.67
2018-03-29T19:27:01.509Z,4.57
2018-03-29T19:29:28.966Z,5.50
2018-03-29T19:31:56.441Z,5.80
2018-03-29T19:34:23.904Z,6.20
2018-03-29T19:36:51.392Z,6.27
2018-03-29T19:39:19.638Z,5.13
2018-03-29T19:41:47.123Z,6.43
2018-03-29T19:44:14.576Z,6.20
2018-03-29T19:46:42.049Z,12.10
2018-03-29T19:49:10.319Z,6.03
2018-03-29T19:51:37.797Z,6.73
2018-03-29T19:54:06.079Z,8.97
2018-03-29T19:56:33.584Z,8.43
2018-03-29T19:59:01.032Z,10.67
2018-03-29T20:01:28.498Z,6.33
2018-03-29T20:03:55.973Z,6.83
2018-03-29T20:06:23.468Z,9.17
2018-03-29T20:08:51.014Z,8.27
2018-03-29T20:11:19.308Z,6.97
2018-03-29T20:13:46.892Z,7.57
2018-03-29T20:16:14.763Z,9.60
2018-03-29T20:18:42.272Z,9.17
2018-03-29T20:21:10.593Z,8.80
2018-03-29T20:23:38.139Z,11.63
2018-03-29T20:26:05.744Z,7.80
2018-03-29T20:28:34.400Z,11.60
2018-03-29T20:31:01.919Z,6.47
2018-03-29T20:33:29.387Z,7.33
2018-03-29T20:35:56.883Z,7.03
2018-03-29T20:38:24.441Z,6.60
2018-03-29T20:40:52.207Z,7.07
2018-03-29T20:43:19.663Z,6.60
2018-03-29T20:45:47.142Z,5.93
2018-03-29T20:48:14.834Z,6.47
2018-03-29T20:50:42.476Z,6.03
2018-03-29T20:53:10.862Z,6.03
2018-03-29T20:55:38.666Z,8.03
2018-03-29T20:58:06.142Z,6.63
2018-03-29T21:00:33.586Z,6.23
2018-03-29T21:03:01.340Z,6.00
2018-03-29T21:05:28.910Z,7.87
2018-03-29T21:07:56.655Z,8.20
2018-03-29T21:10:24.233Z,9.50
2018-03-29T21:12:51.721Z,12.43
2018-03-29T21:15:19.980Z,7.60
2018-03-29T21:17:48.242Z,7.17
2018-03-29T21:20:16.536Z,5.63
2018-03-29T21:22:44.007Z,7.37
2018-03-29T21:25:12.256Z,5.60
2018-03-29T21:27:39.668Z,5.87
2018-03-29T21:30:07.152Z,5.30
2018-03-29T21:32:34.673Z,6.17
2018-03-29T21:35:02.156Z,5.40
2018-03-29T21:37:29.651Z,6.07
2018-03-29T21:39:57.127Z,5.57
2018-03-29T21:42:25.432Z,5.50
2018-03-29T21:44:52.860Z,6.50
2018-03-29T21:47:20.353Z,6.03
2018-03-29T21:49:47.872Z,8.63
2018-03-29T21:52:15.328Z,8.00
2018-03-29T21:54:42.852Z,4.80
2018-03-29T21:57:10.364Z,5.23
2018-03-29T21:59:37.856Z,5.30
2018-03-29T22:02:05.355Z,5.53
2018-03-29T22:04:33.596Z,7.70
2018-03-29T22:07:01.114Z,5.60
2018-03-29T22:09:28.564Z,7.90
2018-03-29T22:11:56.063Z,7.00
2018-03-29T22:14:23.506Z,8.20
2018-03-29T22:16:50.991Z,8.60
2018-03-29T22:19:18.447Z,8.93
2018-03-29T22:21:46.706Z,7.90
2018-03-29T22:24:14.165Z,8.93
2018-03-29T22:26:41.616Z,9.63
2018-03-29T22:29:09.104Z,12.00
2018-03-29T22:31:36.546Z,9.70
2018-03-29T22:34:04.040Z,12.73
2018-03-29T22:36:32.252Z,9.60
2018-03-29T22:38:59.723Z,12.37
2018-03-29T22:41:27.177Z,11.17
2018-03-29T22:43:54.664Z,9.60
2018-03-29T22:46:22.872Z,10.07
2018-03-29T22:48:50.364Z,9.47
2018-03-29T22:51:17.811Z,9.93
2018-03-29T22:53:45.269Z,10.27
2018-03-29T22:56:12.759Z,10.60
2018-03-29T22:58:41.105Z,11.10
2018-03-29T23:01:08.565Z,9.27
2018-03-29T23:03:36.024Z,11.27
2018-03-29T23:06:03.494Z,13.67
2018-03-29T23:08:31.724Z,13.80
2018-03-29T23:10:59.193Z,8.20
2018-03-29T23:13:26.643Z,11.67
2018-03-29T23:15:54.155Z,7.93
2018-03-29T23:18:22.383Z,9.33
2018-03-29T23:20:49.877Z,9.63
2018-03-29T23:23:17.315Z,9.77
2018-03-29T23:25:44.802Z,8.80
2018-03-29T23:28:13.011Z,10.20
2018-03-29T23:30:40.474Z,9.27
2018-03-29T23:33:07.958Z,9.00
2018-03-29T23:35:35.407Z,9.00
2018-03-29T23:38:02.886Z,8.50
2018-03-29T23:40:31.105Z,8.17
2018-03-29T23:42:58.586Z,7.90
2018-03-29T23:45:26.037Z,10.80
2018-03-29T23:47:53.507Z,9.73
2018-03-29T23:50:20.957Z,9.00
2018-03-29T23:52:48.438Z,7.70
2018-03-29T23:55:15.878Z,8.27
2018-03-29T23:57:43.335Z,8.27
